sensor_id;sensor_type;location;lat;lon;timestamp;P1;durP1;ratioP1;P2;durP2;ratioP2
20298;SDS011;10308;42.688;23.256;2023-02-28T00:00:16;12.60;;;11.40;;
20298;SDS011;10308;42.688;23.256;2023-02-28T00:02:46;11.10;;;10.10;;
20298;SDS011;10308;42.688;23.256;2023-02-28T00:05:13;11.10;;;10.10;;
20298;SDS011;10308;42.688;23.256;2023-02-28T00:07:41;11.82;;;10.73;;
20298;SDS011;10308;42.688;23.256;2023-02-28T00:10:09;11.77;;;10.77;;
20298;SDS011;10308;42.688;23.256;2023-02-28T00:12:37;11.70;;;10.52;;
20298;SDS011;10308;42.688;23.256;2023-02-28T00:15:05;10.88;;;9.88;;
20298;SDS011;10308;42.688;23.256;2023-02-28T00:17:32;10.55;;;9.65;;
20298;SDS011;10308;42.688;23.256;2023-02-28T00:20:00;11.27;;;10.13;;
20298;SDS011;10308;42.688;23.256;2023-02-28T00:22:37;10.32;;;9.40;;
20298;SDS011;10308;42.688;23.256;2023-02-28T00:25:04;11.40;;;10.30;;
20298;SDS011;10308;42.688;23.256;2023-02-28T00:27:33;10.75;;;9.85;;
20298;SDS011;10308;42.688;23.256;2023-02-28T00:30:00;10.95;;;10.05;;
20298;SDS011;10308;42.688;23.256;2023-02-28T00:32:27;12.20;;;11.15;;
20298;SDS011;10308;42.688;23.256;2023-02-28T00:34:54;11.20;;;10.20;;
20298;SDS011;10308;42.688;23.256;2023-02-28T00:37:23;12.52;;;11.30;;
20298;SDS011;10308;42.688;23.256;2023-02-28T00:39:49;11.65;;;10.63;;
20298;SDS011;10308;42.688;23.256;2023-02-28T00:42:16;12.77;;;11.60;;
20298;SDS011;10308;42.688;23.256;2023-02-28T00:44:43;15.40;;;14.00;;
20298;SDS011;10308;42.688;23.256;2023-02-28T00:47:10;14.65;;;13.25;;
20298;SDS011;10308;42.688;23.256;2023-02-28T00:49:37;17.00;;;13.68;;
20298;SDS011;10308;42.688;23.256;2023-02-28T00:52:04;15.73;;;14.25;;
20298;SDS011;10308;42.688;23.256;2023-02-28T00:54:32;16.52;;;14.93;;
20298;SDS011;10308;42.688;23.256;2023-02-28T00:56:59;17.00;;;15.50;;
20298;SDS011;10308;42.688;23.256;2023-02-28T00:59:25;18.15;;;16.33;;
20298;SDS011;10308;42.688;23.256;2023-02-28T01:01:52;16.92;;;15.32;;
20298;SDS011;10308;42.688;23.256;2023-02-28T01:04:19;17.73;;;16.02;;
20298;SDS011;10308;42.688;23.256;2023-02-28T01:06:45;16.95;;;15.25;;
20298;SDS011;10308;42.688;23.256;2023-02-28T01:09:12;17.25;;;15.52;;
20298;SDS011;10308;42.688;23.256;2023-02-28T01:11:41;17.58;;;15.85;;
20298;SDS011;10308;42.688;23.256;2023-02-28T01:14:10;17.20;;;15.55;;
20298;SDS011;10308;42.688;23.256;2023-02-28T01:16:38;17.63;;;15.93;;
20298;SDS011;10308;42.688;23.256;2023-02-28T01:19:05;17.65;;;15.82;;
20298;SDS011;10308;42.688;23.256;2023-02-28T01:21:31;17.52;;;15.70;;
20298;SDS011;10308;42.688;23.256;2023-02-28T01:24:00;18.13;;;16.40;;
20298;SDS011;10308;42.688;23.256;2023-02-28T01:26:27;17.92;;;16.33;;
20298;SDS011;10308;42.688;23.256;2023-02-28T01:28:55;18.02;;;16.33;;
20298;SDS011;10308;42.688;23.256;2023-02-28T01:31:22;17.95;;;16.08;;
20298;SDS011;10308;42.688;23.256;2023-02-28T01:33:49;17.10;;;15.38;;
20298;SDS011;10308;42.688;23.256;2023-02-28T01:36:16;16.88;;;15.10;;
20298;SDS011;10308;42.688;23.256;2023-02-28T01:38:44;15.98;;;14.45;;
20298;SDS011;10308;42.688;23.256;2023-02-28T01:41:14;15.98;;;13.98;;
20298;SDS011;10308;42.688;23.256;2023-02-28T01:43:53;15.80;;;13.82;;
20298;SDS011;10308;42.688;23.256;2023-02-28T01:46:28;18.08;;;14.85;;
20298;SDS011;10308;42.688;23.256;2023-02-28T01:48:56;15.38;;;13.88;;
20298;SDS011;10308;42.688;23.256;2023-02-28T01:51:27;15.63;;;14.00;;
20298;SDS011;10308;42.688;23.256;2023-02-28T01:53:58;15.50;;;13.90;;
20298;SDS011;10308;42.688;23.256;2023-02-28T01:56:27;16.10;;;14.50;;
20298;SDS011;10308;42.688;23.256;2023-02-28T01:58:56;16.52;;;14.68;;
20298;SDS011;10308;42.688;23.256;2023-02-28T02:01:25;17.05;;;15.30;;
20298;SDS011;10308;42.688;23.256;2023-02-28T02:03:53;18.83;;;16.80;;
20298;SDS011;10308;42.688;23.256;2023-02-28T02:06:21;18.27;;;16.20;;
20298;SDS011;10308;42.688;23.256;2023-02-28T02:08:48;18.02;;;15.65;;
20298;SDS011;10308;42.688;23.256;2023-02-28T02:11:17;18.50;;;16.60;;
20298;SDS011;10308;42.688;23.256;2023-02-28T02:13:52;18.52;;;16.05;;
20298;SDS011;10308;42.688;23.256;2023-02-28T02:16:37;19.25;;;16.55;;
20298;SDS011;10308;42.688;23.256;2023-02-28T02:19:22;19.27;;;16.80;;
20298;SDS011;10308;42.688;23.256;2023-02-28T02:22:10;18.17;;;16.17;;
20298;SDS011;10308;42.688;23.256;2023-02-28T02:24:53;22.05;;;18.50;;
20298;SDS011;10308;42.688;23.256;2023-02-28T02:27:38;21.10;;;18.00;;
20298;SDS011;10308;42.688;23.256;2023-02-28T02:30:18;21.20;;;18.35;;
20298;SDS011;10308;42.688;23.256;2023-02-28T02:33:07;20.13;;;18.02;;
20298;SDS011;10308;42.688;23.256;2023-02-28T02:35:51;22.48;;;18.52;;
20298;SDS011;10308;42.688;23.256;2023-02-28T02:38:24;22.00;;;18.48;;
20298;SDS011;10308;42.688;23.256;2023-02-28T02:40:58;22.40;;;18.52;;
20298;SDS011;10308;42.688;23.256;2023-02-28T02:43:29;22.15;;;19.58;;
20298;SDS011;10308;42.688;23.256;2023-02-28T02:45:59;23.33;;;19.58;;
20298;SDS011;10308;42.688;23.256;2023-02-28T02:48:29;21.30;;;18.98;;
20298;SDS011;10308;42.688;23.256;2023-02-28T02:51:00;19.92;;;17.75;;
20298;SDS011;10308;42.688;23.256;2023-02-28T02:53:28;23.55;;;20.92;;
20298;SDS011;10308;42.688;23.256;2023-02-28T02:55:57;21.67;;;19.30;;
20298;SDS011;10308;42.688;23.256;2023-02-28T02:58:25;23.98;;;20.63;;
20298;SDS011;10308;42.688;23.256;2023-02-28T03:00:57;24.02;;;21.42;;
20298;SDS011;10308;42.688;23.256;2023-02-28T03:03:25;26.35;;;21.55;;
20298;SDS011;10308;42.688;23.256;2023-02-28T03:05:55;26.67;;;21.20;;
20298;SDS011;10308;42.688;23.256;2023-02-28T03:08:24;26.35;;;21.63;;
20298;SDS011;10308;42.688;23.256;2023-02-28T03:10:51;24.85;;;20.33;;
20298;SDS011;10308;42.688;23.256;2023-02-28T03:13:25;25.08;;;19.60;;
20298;SDS011;10308;42.688;23.256;2023-02-28T03:16:07;24.17;;;20.58;;
20298;SDS011;10308;42.688;23.256;2023-02-28T03:18:47;23.55;;;20.40;;
20298;SDS011;10308;42.688;23.256;2023-02-28T03:21:20;23.00;;;20.50;;
20298;SDS011;10308;42.688;23.256;2023-02-28T03:23:54;25.00;;;20.60;;
20298;SDS011;10308;42.688;23.256;2023-02-28T03:26:26;23.55;;;19.77;;
20298;SDS011;10308;42.688;23.256;2023-02-28T03:28:54;26.95;;;20.95;;
20298;SDS011;10308;42.688;23.256;2023-02-28T03:31:27;24.55;;;20.20;;
20298;SDS011;10308;42.688;23.256;2023-02-28T03:33:58;24.70;;;19.98;;
20298;SDS011;10308;42.688;23.256;2023-02-28T03:36:28;22.17;;;18.15;;
20298;SDS011;10308;42.688;23.256;2023-02-28T03:38:58;22.15;;;18.90;;
20298;SDS011;10308;42.688;23.256;2023-02-28T03:41:29;24.50;;;20.42;;
20298;SDS011;10308;42.688;23.256;2023-02-28T03:43:58;25.98;;;20.98;;
20298;SDS011;10308;42.688;23.256;2023-02-28T03:46:28;30.73;;;22.38;;
20298;SDS011;10308;42.688;23.256;2023-02-28T03:48:59;28.92;;;23.58;;
20298;SDS011;10308;42.688;23.256;2023-02-28T03:51:28;28.15;;;23.83;;
20298;SDS011;10308;42.688;23.256;2023-02-28T03:53:58;30.25;;;23.35;;
20298;SDS011;10308;42.688;23.256;2023-02-28T03:56:27;34.17;;;25.77;;
20298;SDS011;10308;42.688;23.256;2023-02-28T03:58:58;31.55;;;23.58;;
20298;SDS011;10308;42.688;23.256;2023-02-28T04:01:28;29.77;;;22.52;;
20298;SDS011;10308;42.688;23.256;2023-02-28T04:03:58;28.65;;;23.05;;
20298;SDS011;10308;42.688;23.256;2023-02-28T04:06:25;29.13;;;22.77;;
20298;SDS011;10308;42.688;23.256;2023-02-28T04:08:52;26.23;;;21.50;;
20298;SDS011;10308;42.688;23.256;2023-02-28T04:11:22;28.13;;;22.30;;
20298;SDS011;10308;42.688;23.256;2023-02-28T04:13:55;28.05;;;22.90;;
20298;SDS011;10308;42.688;23.256;2023-02-28T04:16:22;28.27;;;22.48;;
20298;SDS011;10308;42.688;23.256;2023-02-28T04:18:48;26.90;;;21.60;;
20298;SDS011;10308;42.688;23.256;2023-02-28T04:21:27;27.00;;;21.45;;
20298;SDS011;10308;42.688;23.256;2023-02-28T04:23:54;24.58;;;21.88;;
20298;SDS011;10308;42.688;23.256;2023-02-28T04:26:22;26.23;;;22.60;;
20298;SDS011;10308;42.688;23.256;2023-02-28T04:28:49;28.40;;;22.05;;
20298;SDS011;10308;42.688;23.256;2023-02-28T04:31:34;25.95;;;21.98;;
20298;SDS011;10308;42.688;23.256;2023-02-28T04:34:00;25.95;;;21.80;;
20298;SDS011;10308;42.688;23.256;2023-02-28T04:36:27;22.88;;;20.00;;
20298;SDS011;10308;42.688;23.256;2023-02-28T04:38:54;22.23;;;19.13;;
20298;SDS011;10308;42.688;23.256;2023-02-28T04:41:23;24.05;;;18.65;;
20298;SDS011;10308;42.688;23.256;2023-02-28T04:43:50;22.70;;;18.13;;
20298;SDS011;10308;42.688;23.256;2023-02-28T04:46:17;24.58;;;17.33;;
20298;SDS011;10308;42.688;23.256;2023-02-28T04:48:45;21.88;;;16.52;;
20298;SDS011;10308;42.688;23.256;2023-02-28T04:51:12;21.60;;;16.65;;
20298;SDS011;10308;42.688;23.256;2023-02-28T04:53:40;20.88;;;15.90;;
20298;SDS011;10308;42.688;23.256;2023-02-28T04:56:08;21.42;;;19.10;;
20298;SDS011;10308;42.688;23.256;2023-02-28T04:58:38;23.02;;;20.50;;
20298;SDS011;10308;42.688;23.256;2023-02-28T05:01:06;22.25;;;19.85;;
20298;SDS011;10308;42.688;23.256;2023-02-28T05:03:37;22.70;;;19.55;;
20298;SDS011;10308;42.688;23.256;2023-02-28T05:06:05;22.20;;;19.33;;
20298;SDS011;10308;42.688;23.256;2023-02-28T05:08:32;23.75;;;20.73;;
20298;SDS011;10308;42.688;23.256;2023-02-28T05:10:59;23.65;;;20.08;;
20298;SDS011;10308;42.688;23.256;2023-02-28T05:13:27;23.52;;;20.02;;
20298;SDS011;10308;42.688;23.256;2023-02-28T05:15:55;22.75;;;19.58;;
20298;SDS011;10308;42.688;23.256;2023-02-28T05:18:22;22.55;;;19.23;;
20298;SDS011;10308;42.688;23.256;2023-02-28T05:20:48;21.98;;;19.48;;
20298;SDS011;10308;42.688;23.256;2023-02-28T05:23:15;23.88;;;19.70;;
20298;SDS011;10308;42.688;23.256;2023-02-28T05:25:44;23.02;;;20.02;;
20298;SDS011;10308;42.688;23.256;2023-02-28T05:28:10;24.65;;;20.17;;
20298;SDS011;10308;42.688;23.256;2023-02-28T05:30:37;24.10;;;20.45;;
20298;SDS011;10308;42.688;23.256;2023-02-28T05:33:05;24.02;;;20.75;;
20298;SDS011;10308;42.688;23.256;2023-02-28T05:35:32;23.02;;;20.38;;
20298;SDS011;10308;42.688;23.256;2023-02-28T05:37:59;24.80;;;20.60;;
20298;SDS011;10308;42.688;23.256;2023-02-28T05:40:25;24.80;;;20.92;;
20298;SDS011;10308;42.688;23.256;2023-02-28T05:42:52;25.77;;;23.05;;
20298;SDS011;10308;42.688;23.256;2023-02-28T05:45:19;26.85;;;22.13;;
20298;SDS011;10308;42.688;23.256;2023-02-28T05:47:45;25.65;;;22.25;;
20298;SDS011;10308;42.688;23.256;2023-02-28T05:50:14;26.83;;;21.77;;
20298;SDS011;10308;42.688;23.256;2023-02-28T05:52:41;24.63;;;21.33;;
20298;SDS011;10308;42.688;23.256;2023-02-28T05:55:08;26.73;;;22.08;;
20298;SDS011;10308;42.688;23.256;2023-02-28T05:57:35;31.58;;;25.02;;
20298;SDS011;10308;42.688;23.256;2023-02-28T06:00:02;29.15;;;23.73;;
20298;SDS011;10308;42.688;23.256;2023-02-28T06:02:29;29.70;;;23.50;;
20298;SDS011;10308;42.688;23.256;2023-02-28T06:04:56;28.45;;;23.95;;
20298;SDS011;10308;42.688;23.256;2023-02-28T06:07:24;28.52;;;22.95;;
20298;SDS011;10308;42.688;23.256;2023-02-28T06:09:51;27.40;;;23.15;;
20298;SDS011;10308;42.688;23.256;2023-02-28T06:12:18;29.10;;;24.83;;
20298;SDS011;10308;42.688;23.256;2023-02-28T06:14:44;31.15;;;24.67;;
20298;SDS011;10308;42.688;23.256;2023-02-28T06:17:11;35.17;;;29.08;;
20298;SDS011;10308;42.688;23.256;2023-02-28T06:19:38;34.70;;;28.85;;
20298;SDS011;10308;42.688;23.256;2023-02-28T06:22:06;32.92;;;27.20;;
20298;SDS011;10308;42.688;23.256;2023-02-28T06:24:34;33.30;;;27.45;;
20298;SDS011;10308;42.688;23.256;2023-02-28T06:27:01;34.55;;;28.23;;
20298;SDS011;10308;42.688;23.256;2023-02-28T06:29:30;32.25;;;27.15;;
20298;SDS011;10308;42.688;23.256;2023-02-28T06:31:57;33.05;;;27.98;;
20298;SDS011;10308;42.688;23.256;2023-02-28T06:34:23;31.70;;;26.88;;
20298;SDS011;10308;42.688;23.256;2023-02-28T06:36:51;28.73;;;24.95;;
20298;SDS011;10308;42.688;23.256;2023-02-28T06:39:18;30.13;;;25.58;;
20298;SDS011;10308;42.688;23.256;2023-02-28T06:41:46;33.08;;;26.75;;
20298;SDS011;10308;42.688;23.256;2023-02-28T06:44:13;31.33;;;25.88;;
20298;SDS011;10308;42.688;23.256;2023-02-28T06:46:41;33.50;;;26.23;;
20298;SDS011;10308;42.688;23.256;2023-02-28T06:49:09;32.45;;;26.73;;
20298;SDS011;10308;42.688;23.256;2023-02-28T06:51:36;31.60;;;27.23;;
20298;SDS011;10308;42.688;23.256;2023-02-28T06:54:04;32.72;;;27.63;;
20298;SDS011;10308;42.688;23.256;2023-02-28T06:56:34;32.53;;;28.00;;
20298;SDS011;10308;42.688;23.256;2023-02-28T06:59:02;33.55;;;28.50;;
20298;SDS011;10308;42.688;23.256;2023-02-28T07:01:29;33.20;;;29.08;;
20298;SDS011;10308;42.688;23.256;2023-02-28T07:03:56;33.38;;;28.30;;
20298;SDS011;10308;42.688;23.256;2023-02-28T07:06:23;31.10;;;27.42;;
20298;SDS011;10308;42.688;23.256;2023-02-28T07:08:51;30.52;;;27.23;;
20298;SDS011;10308;42.688;23.256;2023-02-28T07:11:18;29.75;;;26.20;;
20298;SDS011;10308;42.688;23.256;2023-02-28T07:13:47;30.08;;;26.88;;
20298;SDS011;10308;42.688;23.256;2023-02-28T07:16:15;30.50;;;27.33;;
20298;SDS011;10308;42.688;23.256;2023-02-28T07:18:42;31.38;;;26.85;;
20298;SDS011;10308;42.688;23.256;2023-02-28T07:21:11;34.00;;;28.23;;
20298;SDS011;10308;42.688;23.256;2023-02-28T07:23:38;32.53;;;28.75;;
20298;SDS011;10308;42.688;23.256;2023-02-28T07:26:06;33.85;;;29.52;;
20298;SDS011;10308;42.688;23.256;2023-02-28T07:28:33;32.30;;;28.58;;
20298;SDS011;10308;42.688;23.256;2023-02-28T07:31:03;31.20;;;26.67;;
20298;SDS011;10308;42.688;23.256;2023-02-28T07:33:31;29.92;;;24.90;;
20298;SDS011;10308;42.688;23.256;2023-02-28T07:36:02;28.58;;;25.10;;
20298;SDS011;10308;42.688;23.256;2023-02-28T07:38:29;31.88;;;25.70;;
20298;SDS011;10308;42.688;23.256;2023-02-28T07:40:57;30.63;;;25.17;;
20298;SDS011;10308;42.688;23.256;2023-02-28T07:43:23;33.78;;;26.90;;
20298;SDS011;10308;42.688;23.256;2023-02-28T07:45:50;32.85;;;26.67;;
20298;SDS011;10308;42.688;23.256;2023-02-28T07:48:17;32.47;;;26.77;;
20298;SDS011;10308;42.688;23.256;2023-02-28T07:50:45;30.33;;;25.63;;
20298;SDS011;10308;42.688;23.256;2023-02-28T07:53:21;31.75;;;25.23;;
20298;SDS011;10308;42.688;23.256;2023-02-28T07:55:48;31.95;;;24.42;;
20298;SDS011;10308;42.688;23.256;2023-02-28T07:58:15;29.85;;;24.83;;
20298;SDS011;10308;42.688;23.256;2023-02-28T08:00:41;32.45;;;26.02;;
20298;SDS011;10308;42.688;23.256;2023-02-28T08:03:08;29.95;;;25.00;;
20298;SDS011;10308;42.688;23.256;2023-02-28T08:05:38;31.77;;;25.30;;
20298;SDS011;10308;42.688;23.256;2023-02-28T08:08:06;34.25;;;27.73;;
20298;SDS011;10308;42.688;23.256;2023-02-28T08:10:33;33.67;;;27.85;;
20298;SDS011;10308;42.688;23.256;2023-02-28T08:13:00;31.23;;;26.90;;
20298;SDS011;10308;42.688;23.256;2023-02-28T08:15:27;33.55;;;27.10;;
20298;SDS011;10308;42.688;23.256;2023-02-28T08:17:53;33.42;;;26.65;;
20298;SDS011;10308;42.688;23.256;2023-02-28T08:20:21;30.88;;;26.00;;
20298;SDS011;10308;42.688;23.256;2023-02-28T08:22:48;32.97;;;27.10;;
20298;SDS011;10308;42.688;23.256;2023-02-28T08:25:16;32.75;;;26.35;;
20298;SDS011;10308;42.688;23.256;2023-02-28T08:27:43;32.38;;;26.92;;
20298;SDS011;10308;42.688;23.256;2023-02-28T08:30:10;35.97;;;28.48;;
20298;SDS011;10308;42.688;23.256;2023-02-28T08:32:37;34.78;;;28.55;;
20298;SDS011;10308;42.688;23.256;2023-02-28T08:35:04;34.15;;;27.50;;
20298;SDS011;10308;42.688;23.256;2023-02-28T08:37:32;34.33;;;27.50;;
20298;SDS011;10308;42.688;23.256;2023-02-28T08:39:59;31.88;;;25.80;;
20298;SDS011;10308;42.688;23.256;2023-02-28T08:42:27;34.58;;;27.02;;
20298;SDS011;10308;42.688;23.256;2023-02-28T08:44:54;30.52;;;26.38;;
20298;SDS011;10308;42.688;23.256;2023-02-28T08:47:21;28.73;;;24.63;;
20298;SDS011;10308;42.688;23.256;2023-02-28T08:49:47;28.50;;;25.40;;
20298;SDS011;10308;42.688;23.256;2023-02-28T08:52:14;33.15;;;26.65;;
20298;SDS011;10308;42.688;23.256;2023-02-28T08:54:41;32.00;;;25.10;;
20298;SDS011;10308;42.688;23.256;2023-02-28T08:57:08;31.08;;;24.95;;
20298;SDS011;10308;42.688;23.256;2023-02-28T08:59:36;29.35;;;24.80;;
20298;SDS011;10308;42.688;23.256;2023-02-28T09:02:02;30.27;;;24.45;;
20298;SDS011;10308;42.688;23.256;2023-02-28T09:04:29;28.05;;;25.02;;
20298;SDS011;10308;42.688;23.256;2023-02-28T09:06:56;28.73;;;24.45;;
20298;SDS011;10308;42.688;23.256;2023-02-28T09:09:23;29.60;;;25.48;;
20298;SDS011;10308;42.688;23.256;2023-02-28T09:11:49;31.90;;;26.88;;
20298;SDS011;10308;42.688;23.256;2023-02-28T09:14:16;34.40;;;26.67;;
20298;SDS011;10308;42.688;23.256;2023-02-28T09:16:45;37.40;;;29.17;;
20298;SDS011;10308;42.688;23.256;2023-02-28T09:19:11;33.15;;;25.55;;
20298;SDS011;10308;42.688;23.256;2023-02-28T09:21:38;30.73;;;26.23;;
20298;SDS011;10308;42.688;23.256;2023-02-28T09:24:05;29.48;;;25.58;;
20298;SDS011;10308;42.688;23.256;2023-02-28T09:26:33;33.90;;;27.17;;
20298;SDS011;10308;42.688;23.256;2023-02-28T09:29:00;31.60;;;25.75;;
20298;SDS011;10308;42.688;23.256;2023-02-28T09:31:27;29.60;;;26.05;;
20298;SDS011;10308;42.688;23.256;2023-02-28T09:33:56;31.23;;;27.67;;
20298;SDS011;10308;42.688;23.256;2023-02-28T09:36:25;32.47;;;27.33;;
20298;SDS011;10308;42.688;23.256;2023-02-28T09:38:55;30.83;;;25.60;;
20298;SDS011;10308;42.688;23.256;2023-02-28T09:41:22;33.50;;;26.83;;
20298;SDS011;10308;42.688;23.256;2023-02-28T09:43:51;30.90;;;26.63;;
20298;SDS011;10308;42.688;23.256;2023-02-28T09:46:26;30.38;;;26.13;;
20298;SDS011;10308;42.688;23.256;2023-02-28T09:48:57;31.08;;;26.17;;
20298;SDS011;10308;42.688;23.256;2023-02-28T09:51:32;33.50;;;26.80;;
20298;SDS011;10308;42.688;23.256;2023-02-28T09:54:02;34.35;;;27.05;;
20298;SDS011;10308;42.688;23.256;2023-02-28T09:56:31;32.78;;;28.20;;
20298;SDS011;10308;42.688;23.256;2023-02-28T09:59:01;33.97;;;27.73;;
20298;SDS011;10308;42.688;23.256;2023-02-28T10:01:31;31.20;;;27.27;;
20298;SDS011;10308;42.688;23.256;2023-02-28T10:04:04;35.20;;;28.65;;
20298;SDS011;10308;42.688;23.256;2023-02-28T10:06:36;33.95;;;28.33;;
20298;SDS011;10308;42.688;23.256;2023-02-28T10:09:07;33.83;;;28.27;;
20298;SDS011;10308;42.688;23.256;2023-02-28T10:11:38;33.38;;;27.70;;
20298;SDS011;10308;42.688;23.256;2023-02-28T10:14:06;34.92;;;28.30;;
20298;SDS011;10308;42.688;23.256;2023-02-28T10:16:38;31.48;;;27.17;;
20298;SDS011;10308;42.688;23.256;2023-02-28T10:19:11;31.88;;;27.35;;
20298;SDS011;10308;42.688;23.256;2023-02-28T10:21:41;35.30;;;27.33;;
20298;SDS011;10308;42.688;23.256;2023-02-28T10:24:16;32.22;;;28.55;;
20298;SDS011;10308;42.688;23.256;2023-02-28T10:26:47;33.80;;;28.60;;
20298;SDS011;10308;42.688;23.256;2023-02-28T10:29:14;30.02;;;26.63;;
20298;SDS011;10308;42.688;23.256;2023-02-28T10:31:41;33.05;;;27.83;;
20298;SDS011;10308;42.688;23.256;2023-02-28T10:34:08;30.15;;;26.42;;
20298;SDS011;10308;42.688;23.256;2023-02-28T10:36:40;33.08;;;29.25;;
20298;SDS011;10308;42.688;23.256;2023-02-28T10:42:04;32.80;;;28.77;;
20298;SDS011;10308;42.688;23.256;2023-02-28T10:44:31;31.00;;;27.70;;
20298;SDS011;10308;42.688;23.256;2023-02-28T10:46:58;31.45;;;26.02;;
20298;SDS011;10308;42.688;23.256;2023-02-28T10:49:27;28.08;;;23.55;;
20298;SDS011;10308;42.688;23.256;2023-02-28T10:51:55;25.85;;;20.48;;
20298;SDS011;10308;42.688;23.256;2023-02-28T10:54:23;20.95;;;15.52;;
20298;SDS011;10308;42.688;23.256;2023-02-28T10:57:06;15.70;;;11.55;;
20298;SDS011;10308;42.688;23.256;2023-02-28T10:59:35;13.32;;;10.27;;
20298;SDS011;10308;42.688;23.256;2023-02-28T11:02:01;14.68;;;11.45;;
20298;SDS011;10308;42.688;23.256;2023-02-28T11:04:34;18.00;;;11.20;;
20298;SDS011;10308;42.688;23.256;2023-02-28T11:07:04;13.90;;;10.00;;
20298;SDS011;10308;42.688;23.256;2023-02-28T11:09:33;13.13;;;10.20;;
20298;SDS011;10308;42.688;23.256;2023-02-28T11:12:01;16.92;;;10.85;;
20298;SDS011;10308;42.688;23.256;2023-02-28T11:14:29;14.75;;;10.40;;
20298;SDS011;10308;42.688;23.256;2023-02-28T11:17:00;14.32;;;10.50;;
20298;SDS011;10308;42.688;23.256;2023-02-28T11:19:46;17.65;;;11.32;;
20298;SDS011;10308;42.688;23.256;2023-02-28T11:22:16;16.20;;;10.73;;
20298;SDS011;10308;42.688;23.256;2023-02-28T11:24:45;15.27;;;10.82;;
20298;SDS011;10308;42.688;23.256;2023-02-28T11:30:23;18.17;;;12.57;;
20298;SDS011;10308;42.688;23.256;2023-02-28T11:32:54;17.67;;;14.35;;
20298;SDS011;10308;42.688;23.256;2023-02-28T11:35:23;15.15;;;11.38;;
20298;SDS011;10308;42.688;23.256;2023-02-28T11:37:52;16.30;;;11.98;;
20298;SDS011;10308;42.688;23.256;2023-02-28T11:40:21;15.55;;;11.02;;
20298;SDS011;10308;42.688;23.256;2023-02-28T11:42:57;14.27;;;11.38;;
20298;SDS011;10308;42.688;23.256;2023-02-28T11:45:36;16.70;;;11.80;;
20298;SDS011;10308;42.688;23.256;2023-02-28T11:48:10;16.33;;;10.75;;
20298;SDS011;10308;42.688;23.256;2023-02-28T11:50:51;13.07;;;11.40;;
20298;SDS011;10308;42.688;23.256;2023-02-28T11:53:27;15.98;;;11.27;;
20298;SDS011;10308;42.688;23.256;2023-02-28T11:56:11;15.27;;;11.63;;
20298;SDS011;10308;42.688;23.256;2023-02-28T11:58:47;17.40;;;11.18;;
20298;SDS011;10308;42.688;23.256;2023-02-28T12:01:22;12.75;;;10.13;;
20298;SDS011;10308;42.688;23.256;2023-02-28T12:04:03;16.17;;;10.98;;
20298;SDS011;10308;42.688;23.256;2023-02-28T12:06:40;14.30;;;10.73;;
20298;SDS011;10308;42.688;23.256;2023-02-28T12:09:14;13.48;;;11.50;;
20298;SDS011;10308;42.688;23.256;2023-02-28T12:11:48;15.75;;;11.95;;
20298;SDS011;10308;42.688;23.256;2023-02-28T12:14:25;16.85;;;12.00;;
20298;SDS011;10308;42.688;23.256;2023-02-28T12:17:03;15.43;;;11.77;;
20298;SDS011;10308;42.688;23.256;2023-02-28T12:19:39;17.13;;;12.20;;
20298;SDS011;10308;42.688;23.256;2023-02-28T12:22:15;14.35;;;11.20;;
20298;SDS011;10308;42.688;23.256;2023-02-28T12:24:58;16.48;;;12.50;;
20298;SDS011;10308;42.688;23.256;2023-02-28T12:27:33;16.15;;;11.15;;
20298;SDS011;10308;42.688;23.256;2023-02-28T12:30:02;13.88;;;11.20;;
20298;SDS011;10308;42.688;23.256;2023-02-28T12:32:30;17.80;;;11.88;;
20298;SDS011;10308;42.688;23.256;2023-02-28T12:35:01;19.05;;;11.65;;
20298;SDS011;10308;42.688;23.256;2023-02-28T12:37:31;14.65;;;11.63;;
20298;SDS011;10308;42.688;23.256;2023-02-28T12:40:04;18.02;;;11.38;;
20298;SDS011;10308;42.688;23.256;2023-02-28T12:42:36;19.48;;;10.57;;
20298;SDS011;10308;42.688;23.256;2023-02-28T12:45:08;17.40;;;11.13;;
20298;SDS011;10308;42.688;23.256;2023-02-28T12:47:38;15.55;;;11.40;;
20298;SDS011;10308;42.688;23.256;2023-02-28T12:50:07;14.63;;;11.00;;
20298;SDS011;10308;42.688;23.256;2023-02-28T12:52:40;13.05;;;10.23;;
20298;SDS011;10308;42.688;23.256;2023-02-28T12:55:12;14.10;;;10.68;;
20298;SDS011;10308;42.688;23.256;2023-02-28T12:57:43;13.88;;;10.95;;
20298;SDS011;10308;42.688;23.256;2023-02-28T13:00:15;15.30;;;10.63;;
20298;SDS011;10308;42.688;23.256;2023-02-28T13:02:49;14.23;;;11.00;;
20298;SDS011;10308;42.688;23.256;2023-02-28T13:08:22;14.00;;;10.88;;
20298;SDS011;10308;42.688;23.256;2023-02-28T13:10:55;15.40;;;10.15;;
20298;SDS011;10308;42.688;23.256;2023-02-28T13:13:23;17.48;;;10.98;;
20298;SDS011;10308;42.688;23.256;2023-02-28T13:15:58;12.80;;;9.18;;
20298;SDS011;10308;42.688;23.256;2023-02-28T13:18:27;16.20;;;10.65;;
20298;SDS011;10308;42.688;23.256;2023-02-28T13:20:56;14.27;;;9.90;;
20298;SDS011;10308;42.688;23.256;2023-02-28T13:23:38;16.15;;;10.13;;
20298;SDS011;10308;42.688;23.256;2023-02-28T13:26:21;14.15;;;9.75;;
20298;SDS011;10308;42.688;23.256;2023-02-28T13:38:15;14.93;;;10.88;;
20298;SDS011;10308;42.688;23.256;2023-02-28T13:44:09;16.42;;;10.63;;
20298;SDS011;10308;42.688;23.256;2023-02-28T13:46:38;14.85;;;10.77;;
20298;SDS011;10308;42.688;23.256;2023-02-28T13:52:43;16.63;;;10.50;;
20298;SDS011;10308;42.688;23.256;2023-02-28T13:55:24;15.57;;;10.57;;
20298;SDS011;10308;42.688;23.256;2023-02-28T13:57:58;16.33;;;10.20;;
20298;SDS011;10308;42.688;23.256;2023-02-28T14:00:42;10.70;;;9.13;;
20298;SDS011;10308;42.688;23.256;2023-02-28T14:03:26;16.67;;;10.02;;
20298;SDS011;10308;42.688;23.256;2023-02-28T14:06:07;10.95;;;8.90;;
20298;SDS011;10308;42.688;23.256;2023-02-28T14:08:36;12.48;;;8.75;;
20298;SDS011;10308;42.688;23.256;2023-02-28T14:11:04;14.13;;;9.10;;
20298;SDS011;10308;42.688;23.256;2023-02-28T14:13:41;12.40;;;8.52;;
20298;SDS011;10308;42.688;23.256;2023-02-28T14:16:11;14.48;;;9.68;;
20298;SDS011;10308;42.688;23.256;2023-02-28T14:18:40;14.90;;;9.02;;
20298;SDS011;10308;42.688;23.256;2023-02-28T14:21:09;12.60;;;8.85;;
20298;SDS011;10308;42.688;23.256;2023-02-28T14:23:43;12.55;;;9.13;;
20298;SDS011;10308;42.688;23.256;2023-02-28T14:26:19;13.90;;;9.02;;
20298;SDS011;10308;42.688;23.256;2023-02-28T14:29:27;13.02;;;9.45;;
20298;SDS011;10308;42.688;23.256;2023-02-28T14:32:02;12.73;;;9.32;;
20298;SDS011;10308;42.688;23.256;2023-02-28T14:34:35;13.25;;;9.38;;
20298;SDS011;10308;42.688;23.256;2023-02-28T14:37:03;13.55;;;9.48;;
20298;SDS011;10308;42.688;23.256;2023-02-28T14:39:33;13.70;;;10.20;;
20298;SDS011;10308;42.688;23.256;2023-02-28T14:42:02;13.68;;;9.85;;
20298;SDS011;10308;42.688;23.256;2023-02-28T14:44:31;16.42;;;10.88;;
20298;SDS011;10308;42.688;23.256;2023-02-28T14:46:59;11.98;;;9.73;;
20298;SDS011;10308;42.688;23.256;2023-02-28T14:49:32;12.95;;;9.00;;